sensor_id;sensor_type;location;lat;lon;timestamp;temperature;humidity
39621;DHT22;25309;48.686;9.170;2023-05-29T00:00:39;16.00;90.50
39621;DHT22;25309;48.686;9.170;2023-05-29T00:03:07;16.00;90.60
39621;DHT22;25309;48.686;9.170;2023-05-29T00:05:37;15.90;90.60
39621;DHT22;25309;48.686;9.170;2023-05-29T00:08:04;15.90;90.70
39621;DHT22;25309;48.686;9.170;2023-05-29T00:10:32;15.80;90.80
39621;DHT22;25309;48.686;9.170;2023-05-29T00:12:59;15.80;91.00
39621;DHT22;25309;48.686;9.170;2023-05-29T00:15:28;15.90;91.00
39621;DHT22;25309;48.686;9.170;2023-05-29T00:17:55;15.90;90.90
39621;DHT22;25309;48.686;9.170;2023-05-29T00:20:22;16.00;90.70
39621;DHT22;25309;48.686;9.170;2023-05-29T00:22:50;16.00;90.70
39621;DHT22;25309;48.686;9.170;2023-05-29T00:25:18;15.90;90.70
39621;DHT22;25309;48.686;9.170;2023-05-29T00:27:45;15.90;90.50
39621;DHT22;25309;48.686;9.170;2023-05-29T00:30:12;15.90;90.60
39621;DHT22;25309;48.686;9.170;2023-05-29T00:32:39;15.90;90.60
39621;DHT22;25309;48.686;9.170;2023-05-29T00:35:08;15.80;90.70
39621;DHT22;25309;48.686;9.170;2023-05-29T00:37:35;15.80;90.80
39621;DHT22;25309;48.686;9.170;2023-05-29T00:40:05;15.70;90.80
39621;DHT22;25309;48.686;9.170;2023-05-29T00:42:33;15.60;90.90
39621;DHT22;25309;48.686;9.170;2023-05-29T00:45:00;15.60;90.90
39621;DHT22;25309;48.686;9.170;2023-05-29T00:47:27;15.60;91.00
39621;DHT22;25309;48.686;9.170;2023-05-29T00:49:55;15.50;91.00
39621;DHT22;25309;48.686;9.170;2023-05-29T00:52:23;15.60;91.00
39621;DHT22;25309;48.686;9.170;2023-05-29T00:54:51;15.60;91.00
39621;DHT22;25309;48.686;9.170;2023-05-29T00:57:20;15.50;91.00
39621;DHT22;25309;48.686;9.170;2023-05-29T00:59:50;15.40;91.00
39621;DHT22;25309;48.686;9.170;2023-05-29T01:02:18;15.40;91.10
39621;DHT22;25309;48.686;9.170;2023-05-29T01:04:46;15.30;91.30
39621;DHT22;25309;48.686;9.170;2023-05-29T01:07:13;15.30;91.50
39621;DHT22;25309;48.686;9.170;2023-05-29T01:09:41;15.30;91.60
39621;DHT22;25309;48.686;9.170;2023-05-29T01:12:18;15.30;91.60
39621;DHT22;25309;48.686;9.170;2023-05-29T01:14:59;15.40;91.50
39621;DHT22;25309;48.686;9.170;2023-05-29T01:17:37;15.40;91.50
39621;DHT22;25309;48.686;9.170;2023-05-29T01:20:14;15.40;91.50
39621;DHT22;25309;48.686;9.170;2023-05-29T01:22:58;15.40;91.50
39621;DHT22;25309;48.686;9.170;2023-05-29T01:25:41;15.40;91.50
39621;DHT22;25309;48.686;9.170;2023-05-29T01:28:16;15.30;91.40
39621;DHT22;25309;48.686;9.170;2023-05-29T01:30:47;15.30;91.60
39621;DHT22;25309;48.686;9.170;2023-05-29T01:33:15;15.20;91.70
39621;DHT22;25309;48.686;9.170;2023-05-29T01:35:42;15.10;91.80
39621;DHT22;25309;48.686;9.170;2023-05-29T01:38:09;15.10;92.10
39621;DHT22;25309;48.686;9.170;2023-05-29T01:40:36;15.00;92.10
39621;DHT22;25309;48.686;9.170;2023-05-29T01:43:03;14.90;92.20
39621;DHT22;25309;48.686;9.170;2023-05-29T01:45:31;14.90;92.40
39621;DHT22;25309;48.686;9.170;2023-05-29T01:47:58;14.80;92.50
39621;DHT22;25309;48.686;9.170;2023-05-29T01:50:26;14.80;92.50
39621;DHT22;25309;48.686;9.170;2023-05-29T01:52:54;14.80;92.50
39621;DHT22;25309;48.686;9.170;2023-05-29T01:55:21;14.70;92.50
39621;DHT22;25309;48.686;9.170;2023-05-29T01:57:49;14.70;92.70
39621;DHT22;25309;48.686;9.170;2023-05-29T02:00:17;14.70;92.80
39621;DHT22;25309;48.686;9.170;2023-05-29T02:02:47;14.70;92.80
39621;DHT22;25309;48.686;9.170;2023-05-29T02:05:15;14.70;92.70
39621;DHT22;25309;48.686;9.170;2023-05-29T02:07:42;14.70;92.80
39621;DHT22;25309;48.686;9.170;2023-05-29T02:10:10;14.60;92.80
39621;DHT22;25309;48.686;9.170;2023-05-29T02:12:37;14.50;92.90
39621;DHT22;25309;48.686;9.170;2023-05-29T02:15:05;14.60;93.00
39621;DHT22;25309;48.686;9.170;2023-05-29T02:17:32;14.70;92.90
39621;DHT22;25309;48.686;9.170;2023-05-29T02:20:01;14.70;92.80
39621;DHT22;25309;48.686;9.170;2023-05-29T02:22:28;14.80;92.70
39621;DHT22;25309;48.686;9.170;2023-05-29T02:24:58;14.80;92.60
39621;DHT22;25309;48.686;9.170;2023-05-29T02:27:25;14.70;92.60
39621;DHT22;25309;48.686;9.170;2023-05-29T02:29:52;14.70;92.70
39621;DHT22;25309;48.686;9.170;2023-05-29T02:32:20;14.60;92.80
39621;DHT22;25309;48.686;9.170;2023-05-29T02:34:49;14.40;93.00
39621;DHT22;25309;48.686;9.170;2023-05-29T02:37:17;14.40;93.20
39621;DHT22;25309;48.686;9.170;2023-05-29T02:39:44;14.30;93.40
39621;DHT22;25309;48.686;9.170;2023-05-29T02:42:11;14.30;93.40
39621;DHT22;25309;48.686;9.170;2023-05-29T02:44:38;14.30;93.60
39621;DHT22;25309;48.686;9.170;2023-05-29T02:47:05;14.30;93.40
39621;DHT22;25309;48.686;9.170;2023-05-29T02:49:32;14.20;93.40
39621;DHT22;25309;48.686;9.170;2023-05-29T02:51:59;14.20;93.50
39621;DHT22;25309;48.686;9.170;2023-05-29T02:54:27;14.10;93.70
39621;DHT22;25309;48.686;9.170;2023-05-29T02:56:55;14.00;93.80
39621;DHT22;25309;48.686;9.170;2023-05-29T02:59:22;14.00;93.90
39621;DHT22;25309;48.686;9.170;2023-05-29T03:01:50;13.90;93.90
39621;DHT22;25309;48.686;9.170;2023-05-29T03:04:18;13.90;94.00
39621;DHT22;25309;48.686;9.170;2023-05-29T03:06:45;13.90;94.00
39621;DHT22;25309;48.686;9.170;2023-05-29T03:09:12;13.80;94.00
39621;DHT22;25309;48.686;9.170;2023-05-29T03:11:41;13.80;94.10
39621;DHT22;25309;48.686;9.170;2023-05-29T03:14:08;13.70;94.30
39621;DHT22;25309;48.686;9.170;2023-05-29T03:16:35;13.70;94.30
39621;DHT22;25309;48.686;9.170;2023-05-29T03:19:03;13.70;94.50
39621;DHT22;25309;48.686;9.170;2023-05-29T03:21:30;13.60;94.60
39621;DHT22;25309;48.686;9.170;2023-05-29T03:23:58;13.60;94.70
39621;DHT22;25309;48.686;9.170;2023-05-29T03:26:25;13.60;94.70
39621;DHT22;25309;48.686;9.170;2023-05-29T03:28:54;13.60;94.70
39621;DHT22;25309;48.686;9.170;2023-05-29T03:31:21;13.50;94.70
39621;DHT22;25309;48.686;9.170;2023-05-29T03:33:49;13.50;94.70
39621;DHT22;25309;48.686;9.170;2023-05-29T03:36:35;13.40;94.80
39621;DHT22;25309;48.686;9.170;2023-05-29T03:39:04;13.40;95.40
39621;DHT22;25309;48.686;9.170;2023-05-29T03:41:31;13.40;95.00
39621;DHT22;25309;48.686;9.170;2023-05-29T03:44:00;13.40;95.10
39621;DHT22;25309;48.686;9.170;2023-05-29T03:46:27;13.40;95.00
39621;DHT22;25309;48.686;9.170;2023-05-29T03:48:54;13.40;95.10
39621;DHT22;25309;48.686;9.170;2023-05-29T03:51:21;13.30;95.30
39621;DHT22;25309;48.686;9.170;2023-05-29T03:53:50;13.30;95.30
39621;DHT22;25309;48.686;9.170;2023-05-29T03:56:17;13.30;95.40
39621;DHT22;25309;48.686;9.170;2023-05-29T03:58:45;13.30;95.50
39621;DHT22;25309;48.686;9.170;2023-05-29T04:01:15;13.30;95.50
39621;DHT22;25309;48.686;9.170;2023-05-29T04:03:42;13.20;95.60
39621;DHT22;25309;48.686;9.170;2023-05-29T04:06:10;13.20;95.70
39621;DHT22;25309;48.686;9.170;2023-05-29T04:08:38;13.20;95.70
39621;DHT22;25309;48.686;9.170;2023-05-29T04:11:05;13.20;95.80
39621;DHT22;25309;48.686;9.170;2023-05-29T04:13:32;13.20;96.00
39621;DHT22;25309;48.686;9.170;2023-05-29T04:15:59;13.20;96.00
39621;DHT22;25309;48.686;9.170;2023-05-29T04:18:27;13.30;96.00
39621;DHT22;25309;48.686;9.170;2023-05-29T04:20:54;13.30;96.00
39621;DHT22;25309;48.686;9.170;2023-05-29T04:23:22;13.30;96.10
39621;DHT22;25309;48.686;9.170;2023-05-29T04:25:49;13.30;96.10
39621;DHT22;25309;48.686;9.170;2023-05-29T04:28:23;13.30;96.30
39621;DHT22;25309;48.686;9.170;2023-05-29T04:30:51;13.30;96.20
39621;DHT22;25309;48.686;9.170;2023-05-29T04:33:20;13.40;96.30
39621;DHT22;25309;48.686;9.170;2023-05-29T04:35:50;13.40;96.20
39621;DHT22;25309;48.686;9.170;2023-05-29T04:38:17;13.40;96.20
39621;DHT22;25309;48.686;9.170;2023-05-29T04:40:46;13.50;96.00
39621;DHT22;25309;48.686;9.170;2023-05-29T04:43:17;13.60;96.00
39621;DHT22;25309;48.686;9.170;2023-05-29T04:45:56;13.60;96.00
39621;DHT22;25309;48.686;9.170;2023-05-29T04:48:24;13.60;95.80
39621;DHT22;25309;48.686;9.170;2023-05-29T04:50:53;13.70;95.80
39621;DHT22;25309;48.686;9.170;2023-05-29T04:53:20;13.80;95.80
39621;DHT22;25309;48.686;9.170;2023-05-29T04:55:47;13.80;95.70
39621;DHT22;25309;48.686;9.170;2023-05-29T04:58:15;13.90;95.70
39621;DHT22;25309;48.686;9.170;2023-05-29T05:00:42;13.90;95.70
39621;DHT22;25309;48.686;9.170;2023-05-29T05:03:10;14.00;95.70
39621;DHT22;25309;48.686;9.170;2023-05-29T05:05:37;14.00;95.70
39621;DHT22;25309;48.686;9.170;2023-05-29T05:08:07;14.00;95.60
39621;DHT22;25309;48.686;9.170;2023-05-29T05:10:34;14.10;95.50
39621;DHT22;25309;48.686;9.170;2023-05-29T05:13:01;14.10;95.40
39621;DHT22;25309;48.686;9.170;2023-05-29T05:15:29;14.20;95.20
39621;DHT22;25309;48.686;9.170;2023-05-29T05:17:57;14.30;95.30
39621;DHT22;25309;48.686;9.170;2023-05-29T05:20:24;14.30;95.10
39621;DHT22;25309;48.686;9.170;2023-05-29T05:22:57;14.40;95.20
39621;DHT22;25309;48.686;9.170;2023-05-29T05:25:26;14.50;95.30
39621;DHT22;25309;48.686;9.170;2023-05-29T05:27:54;14.50;95.10
39621;DHT22;25309;48.686;9.170;2023-05-29T05:30:23;14.60;95.00
39621;DHT22;25309;48.686;9.170;2023-05-29T05:32:50;14.70;95.10
39621;DHT22;25309;48.686;9.170;2023-05-29T05:35:17;14.70;94.80
39621;DHT22;25309;48.686;9.170;2023-05-29T05:37:46;14.80;94.60
39621;DHT22;25309;48.686;9.170;2023-05-29T05:40:13;14.90;94.90
39621;DHT22;25309;48.686;9.170;2023-05-29T05:42:51;15.00;94.30
39621;DHT22;25309;48.686;9.170;2023-05-29T05:45:26;15.10;94.40
39621;DHT22;25309;48.686;9.170;2023-05-29T05:47:53;15.20;93.90
39621;DHT22;25309;48.686;9.170;2023-05-29T05:50:22;15.30;93.50
39621;DHT22;25309;48.686;9.170;2023-05-29T05:52:51;15.40;93.30
39621;DHT22;25309;48.686;9.170;2023-05-29T05:55:18;15.40;93.20
39621;DHT22;25309;48.686;9.170;2023-05-29T05:57:45;15.50;92.70
39621;DHT22;25309;48.686;9.170;2023-05-29T06:00:15;15.60;92.90
39621;DHT22;25309;48.686;9.170;2023-05-29T06:02:43;15.70;92.70
39621;DHT22;25309;48.686;9.170;2023-05-29T06:05:19;15.80;92.90
39621;DHT22;25309;48.686;9.170;2023-05-29T06:07:46;15.90;93.00
39621;DHT22;25309;48.686;9.170;2023-05-29T06:10:13;16.00;93.00
39621;DHT22;25309;48.686;9.170;2023-05-29T06:12:40;16.10;92.40
39621;DHT22;25309;48.686;9.170;2023-05-29T06:15:18;16.20;92.80
39621;DHT22;25309;48.686;9.170;2023-05-29T06:17:45;16.30;92.50
39621;DHT22;25309;48.686;9.170;2023-05-29T06:20:14;16.50;92.00
39621;DHT22;25309;48.686;9.170;2023-05-29T06:22:41;16.60;91.80
39621;DHT22;25309;48.686;9.170;2023-05-29T06:25:09;16.70;91.80
39621;DHT22;25309;48.686;9.170;2023-05-29T06:27:36;16.80;92.10
39621;DHT22;25309;48.686;9.170;2023-05-29T06:30:05;16.90;91.70
39621;DHT22;25309;48.686;9.170;2023-05-29T06:32:33;17.10;91.40
39621;DHT22;25309;48.686;9.170;2023-05-29T06:35:00;17.30;91.10
39621;DHT22;25309;48.686;9.170;2023-05-29T06:37:28;17.40;91.00
39621;DHT22;25309;48.686;9.170;2023-05-29T06:39:55;17.60;90.90
39621;DHT22;25309;48.686;9.170;2023-05-29T06:42:23;17.60;90.70
39621;DHT22;25309;48.686;9.170;2023-05-29T06:44:57;17.80;90.70
39621;DHT22;25309;48.686;9.170;2023-05-29T06:47:24;18.10;90.80
39621;DHT22;25309;48.686;9.170;2023-05-29T06:49:52;18.20;90.70
39621;DHT22;25309;48.686;9.170;2023-05-29T06:52:19;18.40;90.60
39621;DHT22;25309;48.686;9.170;2023-05-29T06:55:07;18.40;91.00
39621;DHT22;25309;48.686;9.170;2023-05-29T06:57:35;18.40;90.90
39621;DHT22;25309;48.686;9.170;2023-05-29T07:00:02;18.50;90.60
39621;DHT22;25309;48.686;9.170;2023-05-29T07:02:33;18.60;90.50
39621;DHT22;25309;48.686;9.170;2023-05-29T07:05:02;18.70;90.70
39621;DHT22;25309;48.686;9.170;2023-05-29T07:07:31;18.90;90.40
39621;DHT22;25309;48.686;9.170;2023-05-29T07:09:58;19.00;89.50
39621;DHT22;25309;48.686;9.170;2023-05-29T07:12:26;19.30;89.70
39621;DHT22;25309;48.686;9.170;2023-05-29T07:14:53;19.40;88.40
39621;DHT22;25309;48.686;9.170;2023-05-29T07:17:20;19.40;88.70
39621;DHT22;25309;48.686;9.170;2023-05-29T07:19:58;19.40;88.20
39621;DHT22;25309;48.686;9.170;2023-05-29T07:22:26;19.60;88.30
39621;DHT22;25309;48.686;9.170;2023-05-29T07:24:53;19.70;87.80
39621;DHT22;25309;48.686;9.170;2023-05-29T07:27:20;19.80;87.60
39621;DHT22;25309;48.686;9.170;2023-05-29T07:29:48;19.90;87.10
39621;DHT22;25309;48.686;9.170;2023-05-29T07:32:15;20.20;86.40
39621;DHT22;25309;48.686;9.170;2023-05-29T07:34:43;20.30;85.90
39621;DHT22;25309;48.686;9.170;2023-05-29T07:37:14;20.60;84.90
39621;DHT22;25309;48.686;9.170;2023-05-29T07:39:42;20.80;84.10
39621;DHT22;25309;48.686;9.170;2023-05-29T07:42:30;20.90;83.30
39621;DHT22;25309;48.686;9.170;2023-05-29T07:44:57;20.90;83.80
39621;DHT22;25309;48.686;9.170;2023-05-29T07:47:24;20.90;83.60
39621;DHT22;25309;48.686;9.170;2023-05-29T07:49:51;21.00;83.30
39621;DHT22;25309;48.686;9.170;2023-05-29T07:52:22;21.10;82.80
39621;DHT22;25309;48.686;9.170;2023-05-29T07:54:50;21.30;82.10
39621;DHT22;25309;48.686;9.170;2023-05-29T07:57:17;21.40;82.10
39621;DHT22;25309;48.686;9.170;2023-05-29T07:59:44;21.40;82.20
39621;DHT22;25309;48.686;9.170;2023-05-29T08:02:11;21.50;82.20
39621;DHT22;25309;48.686;9.170;2023-05-29T08:05:17;21.50;82.20
39621;DHT22;25309;48.686;9.170;2023-05-29T08:07:44;21.40;81.10
39621;DHT22;25309;48.686;9.170;2023-05-29T08:10:13;21.30;82.30
39621;DHT22;25309;48.686;9.170;2023-05-29T08:12:40;21.40;81.80
39621;DHT22;25309;48.686;9.170;2023-05-29T08:15:07;21.50;82.10
39621;DHT22;25309;48.686;9.170;2023-05-29T08:17:36;21.50;81.80
39621;DHT22;25309;48.686;9.170;2023-05-29T08:20:04;21.60;81.80
39621;DHT22;25309;48.686;9.170;2023-05-29T08:22:34;21.70;81.60
39621;DHT22;25309;48.686;9.170;2023-05-29T08:25:01;21.70;81.60
39621;DHT22;25309;48.686;9.170;2023-05-29T08:27:29;21.90;81.40
39621;DHT22;25309;48.686;9.170;2023-05-29T08:29:57;22.00;80.50
39621;DHT22;25309;48.686;9.170;2023-05-29T08:32:24;22.20;80.00
39621;DHT22;25309;48.686;9.170;2023-05-29T08:34:51;22.30;80.00
39621;DHT22;25309;48.686;9.170;2023-05-29T08:37:18;22.30;80.30
39621;DHT22;25309;48.686;9.170;2023-05-29T08:39:46;22.30;79.60
39621;DHT22;25309;48.686;9.170;2023-05-29T08:42:17;22.30;79.20
39621;DHT22;25309;48.686;9.170;2023-05-29T08:44:48;22.50;79.00
39621;DHT22;25309;48.686;9.170;2023-05-29T08:47:17;22.60;79.10
39621;DHT22;25309;48.686;9.170;2023-05-29T08:49:52;22.70;79.80
39621;DHT22;25309;48.686;9.170;2023-05-29T08:52:21;22.80;78.30
39621;DHT22;25309;48.686;9.170;2023-05-29T08:54:49;23.00;78.70
39621;DHT22;25309;48.686;9.170;2023-05-29T08:57:17;23.00;79.00
39621;DHT22;25309;48.686;9.170;2023-05-29T08:59:44;23.10;78.00
39621;DHT22;25309;48.686;9.170;2023-05-29T09:02:13;23.20;78.10
39621;DHT22;25309;48.686;9.170;2023-05-29T09:04:42;23.20;78.30
39621;DHT22;25309;48.686;9.170;2023-05-29T09:07:11;23.20;78.80
39621;DHT22;25309;48.686;9.170;2023-05-29T09:09:39;23.20;78.90
39621;DHT22;25309;48.686;9.170;2023-05-29T09:12:06;23.30;79.00
39621;DHT22;25309;48.686;9.170;2023-05-29T09:14:35;23.40;78.90
39621;DHT22;25309;48.686;9.170;2023-05-29T09:17:03;23.50;78.20
39621;DHT22;25309;48.686;9.170;2023-05-29T09:19:32;23.50;78.60
39621;DHT22;25309;48.686;9.170;2023-05-29T09:22:01;23.50;78.30
39621;DHT22;25309;48.686;9.170;2023-05-29T09:24:29;23.60;77.50
39621;DHT22;25309;48.686;9.170;2023-05-29T09:26:59;23.70;77.30
39621;DHT22;25309;48.686;9.170;2023-05-29T09:29:26;23.80;78.00
39621;DHT22;25309;48.686;9.170;2023-05-29T09:31:53;23.90;77.00
39621;DHT22;25309;48.686;9.170;2023-05-29T09:34:23;24.10;76.90
39621;DHT22;25309;48.686;9.170;2023-05-29T09:36:53;24.30;77.30
39621;DHT22;25309;48.686;9.170;2023-05-29T09:39:20;24.40;76.10
39621;DHT22;25309;48.686;9.170;2023-05-29T09:41:47;24.60;75.90
39621;DHT22;25309;48.686;9.170;2023-05-29T09:44:15;24.70;76.10
39621;DHT22;25309;48.686;9.170;2023-05-29T09:46:42;24.80;75.60
39621;DHT22;25309;48.686;9.170;2023-05-29T09:49:11;24.80;75.80
39621;DHT22;25309;48.686;9.170;2023-05-29T09:51:39;25.00;75.10
39621;DHT22;25309;48.686;9.170;2023-05-29T09:54:15;25.00;74.80
39621;DHT22;25309;48.686;9.170;2023-05-29T09:56:43;25.20;75.00
39621;DHT22;25309;48.686;9.170;2023-05-29T09:59:11;25.40;74.30
39621;DHT22;25309;48.686;9.170;2023-05-29T10:01:40;25.50;72.70
39621;DHT22;25309;48.686;9.170;2023-05-29T10:04:09;25.60;73.50
39621;DHT22;25309;48.686;9.170;2023-05-29T10:06:38;25.70;73.70
39621;DHT22;25309;48.686;9.170;2023-05-29T10:09:08;25.80;73.20
39621;DHT22;25309;48.686;9.170;2023-05-29T10:11:38;25.90;73.10
39621;DHT22;25309;48.686;9.170;2023-05-29T10:14:10;26.10;73.40
39621;DHT22;25309;48.686;9.170;2023-05-29T10:16:43;26.30;72.70
39621;DHT22;25309;48.686;9.170;2023-05-29T10:19:15;26.40;72.40
39621;DHT22;25309;48.686;9.170;2023-05-29T10:21:45;26.70;72.00
39621;DHT22;25309;48.686;9.170;2023-05-29T10:24:12;26.90;71.60
39621;DHT22;25309;48.686;9.170;2023-05-29T10:26:43;27.20;70.30
39621;DHT22;25309;48.686;9.170;2023-05-29T10:29:17;27.30;69.20
39621;DHT22;25309;48.686;9.170;2023-05-29T10:31:52;27.60;68.80
39621;DHT22;25309;48.686;9.170;2023-05-29T10:34:30;27.90;67.90
39621;DHT22;25309;48.686;9.170;2023-05-29T10:37:03;28.30;68.00
39621;DHT22;25309;48.686;9.170;2023-05-29T10:39:32;28.80;67.10
39621;DHT22;25309;48.686;9.170;2023-05-29T10:42:01;29.30;64.80
39621;DHT22;25309;48.686;9.170;2023-05-29T10:44:39;29.70;64.40
39621;DHT22;25309;48.686;9.170;2023-05-29T10:47:06;30.00;62.40
39621;DHT22;25309;48.686;9.170;2023-05-29T10:49:35;30.30;61.80
39621;DHT22;25309;48.686;9.170;2023-05-29T10:52:04;30.50;60.30
39621;DHT22;25309;48.686;9.170;2023-05-29T10:54:41;30.70;61.20
39621;DHT22;25309;48.686;9.170;2023-05-29T10:57:17;31.00;60.90
39621;DHT22;25309;48.686;9.170;2023-05-29T10:59:45;31.30;60.00
39621;DHT22;25309;48.686;9.170;2023-05-29T11:02:17;31.50;60.80
39621;DHT22;25309;48.686;9.170;2023-05-29T11:04:44;32.00;59.80
39621;DHT22;25309;48.686;9.170;2023-05-29T11:07:33;32.50;59.50
39621;DHT22;25309;48.686;9.170;2023-05-29T11:10:12;32.80;59.20
39621;DHT22;25309;48.686;9.170;2023-05-29T11:12:57;33.20;58.70
39621;DHT22;25309;48.686;9.170;2023-05-29T11:15:25;33.60;57.10
39621;DHT22;25309;48.686;9.170;2023-05-29T11:17:52;33.80;56.10
39621;DHT22;25309;48.686;9.170;2023-05-29T11:20:35;34.10;55.10
39621;DHT22;25309;48.686;9.170;2023-05-29T11:23:04;34.00;55.10
39621;DHT22;25309;48.686;9.170;2023-05-29T11:25:36;33.80;54.80
39621;DHT22;25309;48.686;9.170;2023-05-29T11:28:05;33.90;54.00
39621;DHT22;25309;48.686;9.170;2023-05-29T11:30:44;34.10;54.40
39621;DHT22;25309;48.686;9.170;2023-05-29T11:33:25;34.30;54.30
39621;DHT22;25309;48.686;9.170;2023-05-29T11:35:57;34.30;52.40
39621;DHT22;25309;48.686;9.170;2023-05-29T11:38:24;34.10;53.50
39621;DHT22;25309;48.686;9.170;2023-05-29T11:40:53;34.00;53.40
39621;DHT22;25309;48.686;9.170;2023-05-29T11:43:22;34.10;53.70
39621;DHT22;25309;48.686;9.170;2023-05-29T11:45:49;34.10;53.10
39621;DHT22;25309;48.686;9.170;2023-05-29T11:48:16;34.10;52.90
39621;DHT22;25309;48.686;9.170;2023-05-29T11:50:43;34.10;52.50
39621;DHT22;25309;48.686;9.170;2023-05-29T11:53:11;34.00;51.90
39621;DHT22;25309;48.686;9.170;2023-05-29T11:55:38;34.00;52.50
39621;DHT22;25309;48.686;9.170;2023-05-29T11:58:06;33.80;52.40
39621;DHT22;25309;48.686;9.170;2023-05-29T12:00:36;34.00;52.10
39621;DHT22;25309;48.686;9.170;2023-05-29T12:03:04;34.00;52.00
39621;DHT22;25309;48.686;9.170;2023-05-29T12:05:33;34.20;52.20
39621;DHT22;25309;48.686;9.170;2023-05-29T12:08:10;34.30;52.50
39621;DHT22;25309;48.686;9.170;2023-05-29T12:10:37;34.40;51.60
39621;DHT22;25309;48.686;9.170;2023-05-29T12:13:04;34.60;50.70
39621;DHT22;25309;48.686;9.170;2023-05-29T12:15:31;34.80;49.70
39621;DHT22;25309;48.686;9.170;2023-05-29T12:17:59;34.60;49.90
39621;DHT22;25309;48.686;9.170;2023-05-29T12:20:27;34.70;49.70
39621;DHT22;25309;48.686;9.170;2023-05-29T12:23:00;34.80;49.40
39621;DHT22;25309;48.686;9.170;2023-05-29T12:25:28;34.80;48.90
39621;DHT22;25309;48.686;9.170;2023-05-29T12:27:56;34.70;49.10
39621;DHT22;25309;48.686;9.170;2023-05-29T12:30:24;34.70;49.80
39621;DHT22;25309;48.686;9.170;2023-05-29T12:33:00;34.90;48.20
39621;DHT22;25309;48.686;9.170;2023-05-29T12:35:29;35.20;48.90
39621;DHT22;25309;48.686;9.170;2023-05-29T12:37:58;35.30;48.80
39621;DHT22;25309;48.686;9.170;2023-05-29T12:40:27;35.20;48.30
39621;DHT22;25309;48.686;9.170;2023-05-29T12:42:56;34.90;48.50
39621;DHT22;25309;48.686;9.170;2023-05-29T12:45:25;34.80;47.90
39621;DHT22;25309;48.686;9.170;2023-05-29T12:47:54;34.80;48.80
39621;DHT22;25309;48.686;9.170;2023-05-29T12:50:25;34.90;48.60
39621;DHT22;25309;48.686;9.170;2023-05-29T12:52:56;35.00;48.60
39621;DHT22;25309;48.686;9.170;2023-05-29T12:55:23;35.00;48.70
39621;DHT22;25309;48.686;9.170;2023-05-29T12:57:50;34.90;47.80
39621;DHT22;25309;48.686;9.170;2023-05-29T13:00:18;34.80;48.40
39621;DHT22;25309;48.686;9.170;2023-05-29T13:02:47;34.90;48.20
39621;DHT22;25309;48.686;9.170;2023-05-29T13:05:15;35.10;47.80
39621;DHT22;25309;48.686;9.170;2023-05-29T13:07:44;35.30;48.30
39621;DHT22;25309;48.686;9.170;2023-05-29T13:10:12;35.50;47.70
39621;DHT22;25309;48.686;9.170;2023-05-29T13:12:39;35.60;47.30
39621;DHT22;25309;48.686;9.170;2023-05-29T13:15:07;35.40;47.90
39621;DHT22;25309;48.686;9.170;2023-05-29T13:17:34;35.20;47.70
39621;DHT22;25309;48.686;9.170;2023-05-29T13:20:01;35.40;48.90
39621;DHT22;25309;48.686;9.170;2023-05-29T13:22:28;35.60;47.80
39621;DHT22;25309;48.686;9.170;2023-05-29T13:24:59;35.70;47.40
39621;DHT22;25309;48.686;9.170;2023-05-29T13:27:27;35.80;47.20
39621;DHT22;25309;48.686;9.170;2023-05-29T13:29:54;35.90;47.20
39621;DHT22;25309;48.686;9.170;2023-05-29T13:32:22;35.70;46.60
39621;DHT22;25309;48.686;9.170;2023-05-29T13:34:49;35.60;46.50
39621;DHT22;25309;48.686;9.170;2023-05-29T13:37:16;35.60;47.70
39621;DHT22;25309;48.686;9.170;2023-05-29T13:39:43;35.70;47.40
39621;DHT22;25309;48.686;9.170;2023-05-29T13:42:11;35.80;47.40
39621;DHT22;25309;48.686;9.170;2023-05-29T13:44:38;35.80;46.40
39621;DHT22;25309;48.686;9.170;2023-05-29T13:47:06;35.80;45.80
39621;DHT22;25309;48.686;9.170;2023-05-29T13:49:34;35.80;46.40
39621;DHT22;25309;48.686;9.170;2023-05-29T13:52:01;35.60;45.10
39621;DHT22;25309;48.686;9.170;2023-05-29T13:54:28;35.30;46.90
39621;DHT22;25309;48.686;9.170;2023-05-29T13:57:02;35.30;46.60
39621;DHT22;25309;48.686;9.170;2023-05-29T13:59:32;35.30;46.50
39621;DHT22;25309;48.686;9.170;2023-05-29T14:02:00;35.30;46.50
39621;DHT22;25309;48.686;9.170;2023-05-29T14:04:29;35.30;46.30
39621;DHT22;25309;48.686;9.170;2023-05-29T14:06:57;35.30;46.40
39621;DHT22;25309;48.686;9.170;2023-05-29T14:09:24;35.10;46.50
39621;DHT22;25309;48.686;9.170;2023-05-29T14:11:54;35.10;45.90
39621;DHT22;25309;48.686;9.170;2023-05-29T14:14:22;35.20;45.80
39621;DHT22;25309;48.686;9.170;2023-05-29T14:16:52;35.20;44.90
39621;DHT22;25309;48.686;9.170;2023-05-29T14:19:19;35.20;45.90
39621;DHT22;25309;48.686;9.170;2023-05-29T14:21:46;35.30;46.10
39621;DHT22;25309;48.686;9.170;2023-05-29T14:24:13;35.30;45.40
39621;DHT22;25309;48.686;9.170;2023-05-29T14:26:42;35.10;46.40
39621;DHT22;25309;48.686;9.170;2023-05-29T14:29:11;34.90;45.20
39621;DHT22;25309;48.686;9.170;2023-05-29T14:31:41;34.70;45.10
39621;DHT22;25309;48.686;9.170;2023-05-29T14:34:10;34.70;46.50
39621;DHT22;25309;48.686;9.170;2023-05-29T14:36:37;34.50;45.60
39621;DHT22;25309;48.686;9.170;2023-05-29T14:39:05;34.60;46.00
39621;DHT22;25309;48.686;9.170;2023-05-29T14:41:32;34.60;46.70
39621;DHT22;25309;48.686;9.170;2023-05-29T14:44:02;34.60;45.90
39621;DHT22;25309;48.686;9.170;2023-05-29T14:46:29;34.40;46.10
39621;DHT22;25309;48.686;9.170;2023-05-29T14:48:59;34.10;46.70
39621;DHT22;25309;48.686;9.170;2023-05-29T14:51:28;34.20;46.60
39621;DHT22;25309;48.686;9.170;2023-05-29T14:53:55;34.30;46.70
39621;DHT22;25309;48.686;9.170;2023-05-29T14:56:22;34.00;46.40
39621;DHT22;25309;48.686;9.170;2023-05-29T14:58:49;33.80;45.50
39621;DHT22;25309;48.686;9.170;2023-05-29T15:01:16;33.20;46.30
39621;DHT22;25309;48.686;9.170;2023-05-29T15:03:45;33.20;47.50
39621;DHT22;25309;48.686;9.170;2023-05-29T15:06:12;33.30;47.10
39621;DHT22;25309;48.686;9.170;2023-05-29T15:08:41;33.10;46.30
39621;DHT22;25309;48.686;9.170;2023-05-29T15:11:10;32.90;47.40
39621;DHT22;25309;48.686;9.170;2023-05-29T15:13:39;33.00;48.10
39621;DHT22;25309;48.686;9.170;2023-05-29T15:16:07;32.90;46.80
39621;DHT22;25309;48.686;9.170;2023-05-29T15:18:34;32.90;48.30
39621;DHT22;25309;48.686;9.170;2023-05-29T15:21:03;32.70;47.70
39621;DHT22;25309;48.686;9.170;2023-05-29T15:23:31;32.40;48.20
39621;DHT22;25309;48.686;9.170;2023-05-29T15:26:02;32.20;48.50
39621;DHT22;25309;48.686;9.170;2023-05-29T15:28:30;32.10;48.80
39621;DHT22;25309;48.686;9.170;2023-05-29T15:30:57;32.00;48.80
39621;DHT22;25309;48.686;9.170;2023-05-29T15:33:24;32.00;49.20
39621;DHT22;25309;48.686;9.170;2023-05-29T15:35:51;32.00;49.00
39621;DHT22;25309;48.686;9.170;2023-05-29T15:38:18;31.80;49.00
39621;DHT22;25309;48.686;9.170;2023-05-29T15:40:46;31.50;50.20